createdAt,value
2017-09-18T00:01:42.988Z,85.90
2017-09-18T00:04:10.511Z,86.39
2017-09-18T00:06:38.001Z,86.08
2017-09-18T00:09:05.433Z,86.10
2017-09-18T00:11:32.903Z,85.86
2017-09-18T00:14:00.356Z,86.06
2017-09-18T00:16:27.823Z,85.80
2017-09-18T00:18:55.355Z,86.62
2017-09-18T00:21:22.814Z,86.66
2017-09-18T00:23:50.267Z,87.23
2017-09-18T00:26:17.814Z,86.99
2017-09-18T00:28:45.259Z,86.78
2017-09-18T00:31:12.724Z,86.83
2017-09-18T00:33:40.157Z,86.89
2017-09-18T00:36:07.631Z,87.95
2017-09-18T00:38:35.066Z,87.18
2017-09-18T00:41:02.531Z,87.67
2017-09-18T00:43:30.020Z,88.11
2017-09-18T00:45:57.595Z,87.79
2017-09-18T00:48:25.036Z,86.99
2017-09-18T00:50:52.647Z,85.52
2017-09-18T00:53:20.119Z,86.22
2017-09-18T00:55:47.561Z,86.22
2017-09-18T00:58:15.045Z,86.11
2017-09-18T01:00:42.487Z,86.43
2017-09-18T01:03:10.083Z,85.95
2017-09-18T01:05:37.531Z,85.75
2017-09-18T01:08:05.022Z,86.26
2017-09-18T01:10:32.467Z,85.96
2017-09-18T01:12:59.922Z,86.52
2017-09-18T01:15:27.353Z,86.31
2017-09-18T01:17:54.817Z,86.22
2017-09-18T01:20:22.255Z,86.54
2017-09-18T01:22:49.719Z,87.16
2017-09-18T01:25:17.159Z,86.08
2017-09-18T01:27:44.619Z,85.41
2017-09-18T01:30:12.063Z,86.35
2017-09-18T01:32:39.556Z,86.31
2017-09-18T01:35:06.994Z,86.22
2017-09-18T01:37:34.495Z,86.74
2017-09-18T01:40:01.925Z,86.29
2017-09-18T01:42:29.484Z,85.95
2017-09-18T01:44:56.934Z,85.87
2017-09-18T01:47:24.403Z,85.66
2017-09-18T01:49:52.090Z,85.61
2017-09-18T01:52:19.570Z,86.39
2017-09-18T01:54:47.001Z,86.40
2017-09-18T01:57:14.439Z,85.95
2017-09-18T01:59:41.899Z,85.85
2017-09-18T02:02:09.367Z,85.72
2017-09-18T02:04:36.834Z,86.15
2017-09-18T02:07:04.345Z,86.39
2017-09-18T02:09:31.816Z,85.86
2017-09-18T02:11:59.259Z,86.14
2017-09-18T02:14:26.717Z,86.35
2017-09-18T02:16:54.163Z,86.40
2017-09-18T02:19:21.633Z,86.43
2017-09-18T02:21:49.086Z,86.79
2017-09-18T02:24:16.563Z,86.59
2017-09-18T02:26:44.011Z,86.82
2017-09-18T02:29:11.471Z,86.16
2017-09-18T02:31:38.903Z,86.35
2017-09-18T02:34:06.367Z,85.89
2017-09-18T02:36:33.858Z,85.82
2017-09-18T02:39:01.346Z,85.91
2017-09-18T02:41:28.783Z,85.94
2017-09-18T02:43:56.227Z,86.19
2017-09-18T02:46:23.700Z,86.36
2017-09-18T02:48:51.208Z,85.83
2017-09-18T02:51:18.671Z,85.79
2017-09-18T02:53:46.139Z,85.77
2017-09-18T02:56:13.599Z,85.91
2017-09-18T02:58:41.036Z,86.34
2017-09-18T03:01:08.506Z,85.84
2017-09-18T03:03:35.949Z,85.74
2017-09-18T03:06:03.418Z,86.01
2017-09-18T03:08:30.849Z,85.96
2017-09-18T03:10:58.349Z,86.17
2017-09-18T03:13:25.783Z,85.51
2017-09-18T03:15:53.218Z,86.03
2017-09-18T03:18:20.679Z,85.61
2017-09-18T03:20:48.109Z,85.62
2017-09-18T03:23:16.468Z,85.84
2017-09-18T03:25:43.966Z,86.24
2017-09-18T03:28:11.428Z,86.75
2017-09-18T03:30:38.908Z,86.57
2017-09-18T03:33:06.483Z,85.65
2017-09-18T03:35:34.001Z,86.21
2017-09-18T03:38:01.481Z,85.96
2017-09-18T03:40:28.972Z,85.43
2017-09-18T03:42:56.447Z,85.78
2017-09-18T03:45:23.890Z,86.28
2017-09-18T03:47:51.323Z,85.68
2017-09-18T03:50:18.792Z,85.77
2017-09-18T03:52:46.235Z,86.10
2017-09-18T03:55:13.685Z,85.50
2017-09-18T03:57:41.178Z,85.55
2017-09-18T04:00:08.630Z,85.89
2017-09-18T04:02:36.061Z,86.34
2017-09-18T04:05:03.551Z,86.14
2017-09-18T04:07:30.981Z,85.38
2017-09-18T04:09:58.447Z,85.49
2017-09-18T04:12:25.887Z,86.09
2017-09-18T04:14:53.355Z,86.79
2017-09-18T04:17:20.885Z,86.66
2017-09-18T04:19:48.341Z,86.34
2017-09-18T04:22:16.357Z,87.08
2017-09-18T04:24:43.818Z,86.39
2017-09-18T04:27:11.287Z,86.89
2017-09-18T04:29:38.744Z,86.80
2017-09-18T04:32:06.211Z,86.33
2017-09-18T04:34:33.639Z,86.97
2017-09-18T04:37:01.090Z,86.97
2017-09-18T04:39:28.527Z,86.92
2017-09-18T04:41:55.999Z,86.62
2017-09-18T04:44:23.438Z,86.60
2017-09-18T04:46:50.902Z,86.01
2017-09-18T04:49:18.332Z,86.68
2017-09-18T04:51:45.795Z,88.51
2017-09-18T04:54:13.230Z,87.81
2017-09-18T04:56:40.711Z,87.81
2017-09-18T04:59:08.162Z,87.00
2017-09-18T05:01:35.603Z,87.09
2017-09-18T05:04:03.075Z,88.10
2017-09-18T05:06:30.584Z,87.29
2017-09-18T05:08:58.324Z,87.46
2017-09-18T05:11:25.838Z,87.91
2017-09-18T05:13:53.323Z,87.72
2017-09-18T05:16:20.753Z,88.03
2017-09-18T05:18:48.210Z,87.77
2017-09-18T05:21:15.671Z,87.92
2017-09-18T05:23:43.140Z,87.90
2017-09-18T05:26:10.602Z,88.04
2017-09-18T05:28:38.078Z,87.62
2017-09-18T05:31:05.556Z,87.30
2017-09-18T05:33:33.051Z,87.58
2017-09-18T05:36:00.541Z,87.00
2017-09-18T05:38:28.020Z,87.61
2017-09-18T05:40:55.471Z,86.86
2017-09-18T05:43:22.938Z,87.60
2017-09-18T05:45:50.394Z,87.78
2017-09-18T05:48:17.896Z,88.07
2017-09-18T05:50:45.335Z,87.74
2017-09-18T05:53:12.774Z,88.14
2017-09-18T05:55:40.734Z,88.01
2017-09-18T05:58:08.188Z,87.91
2017-09-18T06:00:35.670Z,87.62
2017-09-18T06:03:03.111Z,87.51
2017-09-18T06:05:31.035Z,87.54
2017-09-18T06:07:58.570Z,87.77
2017-09-18T06:10:26.093Z,87.79
2017-09-18T06:12:53.543Z,87.68
2017-09-18T06:15:20.998Z,87.46
2017-09-18T06:17:48.450Z,88.06
2017-09-18T06:20:15.938Z,88.29
2017-09-18T06:22:43.371Z,88.38
2017-09-18T06:25:10.824Z,87.85
2017-09-18T06:27:38.256Z,87.78
2017-09-18T06:30:05.724Z,88.59
2017-09-18T06:32:33.155Z,88.23
2017-09-18T06:35:00.651Z,88.11
2017-09-18T06:37:28.101Z,88.58
2017-09-18T06:39:55.571Z,88.08
2017-09-18T06:42:23.050Z,87.90
2017-09-18T06:44:50.516Z,87.89
2017-09-18T06:47:17.960Z,88.33
2017-09-18T06:49:45.538Z,87.86
2017-09-18T06:52:12.987Z,87.92
2017-09-18T06:54:40.575Z,87.93
2017-09-18T06:57:08.066Z,88.00
2017-09-18T06:59:35.517Z,87.70
2017-09-18T07:02:02.979Z,88.01
2017-09-18T07:04:30.435Z,87.98
2017-09-18T07:06:57.902Z,87.89
2017-09-18T07:09:25.358Z,88.02
2017-09-18T07:11:52.833Z,88.01
2017-09-18T07:14:20.347Z,88.77
2017-09-18T07:16:47.876Z,88.66
2017-09-18T07:19:15.356Z,87.50
2017-09-18T07:21:42.817Z,87.10
2017-09-18T07:24:10.278Z,84.98
2017-09-18T07:26:37.748Z,85.37
2017-09-18T07:29:05.196Z,84.98
2017-09-18T07:31:32.683Z,83.93
2017-09-18T07:34:00.125Z,83.72
2017-09-18T07:36:27.595Z,83.56
2017-09-18T07:38:55.060Z,84.07
2017-09-18T07:41:23.077Z,83.88
2017-09-18T07:43:50.580Z,83.53
2017-09-18T07:46:18.057Z,83.12
2017-09-18T07:48:45.503Z,83.13
2017-09-18T07:51:12.981Z,84.07
2017-09-18T07:53:40.432Z,82.87
2017-09-18T07:56:07.887Z,82.84
2017-09-18T07:58:35.325Z,82.55
2017-09-18T08:01:02.780Z,81.50
2017-09-18T08:03:30.271Z,81.02
2017-09-18T08:05:57.719Z,79.15
2017-09-18T08:08:25.187Z,78.93
2017-09-18T08:10:52.638Z,79.68
2017-09-18T08:13:20.106Z,80.03
2017-09-18T08:15:47.638Z,78.00
2017-09-18T08:18:15.203Z,77.76
2017-09-18T08:20:42.647Z,77.36
2017-09-18T08:23:10.126Z,76.85
2017-09-18T08:25:37.584Z,76.44
2017-09-18T08:28:05.116Z,75.96
2017-09-18T08:30:32.563Z,75.60
2017-09-18T08:33:00.136Z,75.10
2017-09-18T08:35:27.587Z,74.65
2017-09-18T08:37:55.056Z,75.98
2017-09-18T08:40:22.974Z,76.58
2017-09-18T08:42:50.499Z,75.37
2017-09-18T08:45:17.946Z,76.51
2017-09-18T08:47:45.500Z,74.89
2017-09-18T08:50:12.958Z,75.83
2017-09-18T08:52:40.435Z,74.97
2017-09-18T08:55:07.880Z,74.64
2017-09-18T08:57:35.354Z,73.57
2017-09-18T09:00:02.794Z,73.96
2017-09-18T09:02:30.333Z,73.38
2017-09-18T09:04:57.784Z,73.40
2017-09-18T09:07:25.241Z,73.09
2017-09-18T09:09:52.673Z,73.58
2017-09-18T09:12:20.170Z,74.38
2017-09-18T09:14:47.635Z,75.01
2017-09-18T09:17:15.102Z,72.76
2017-09-18T09:19:42.566Z,73.04
2017-09-18T09:22:10.031Z,73.83
2017-09-18T09:24:37.541Z,72.58
2017-09-18T09:27:05.124Z,72.66
2017-09-18T09:29:32.570Z,72.70
2017-09-18T09:32:00.115Z,72.64
2017-09-18T09:34:27.600Z,72.35
2017-09-18T09:36:55.145Z,72.01
2017-09-18T09:39:22.607Z,71.24
2017-09-18T09:41:50.045Z,71.43
2017-09-18T09:44:17.526Z,72.11
2017-09-18T09:46:44.968Z,71.23
2017-09-18T09:49:12.435Z,71.24
2017-09-18T09:51:39.898Z,71.82
2017-09-18T09:54:07.381Z,70.52
2017-09-18T09:56:34.896Z,68.41
2017-09-18T09:59:02.361Z,68.07
2017-09-18T10:01:29.809Z,65.06
2017-09-18T10:03:57.278Z,65.29
2017-09-18T10:06:24.732Z,67.71
2017-09-18T10:08:52.207Z,64.18
2017-09-18T10:11:19.677Z,66.25
2017-09-18T10:13:48.068Z,63.95
2017-09-18T10:16:15.638Z,65.23
2017-09-18T10:18:43.117Z,66.36
2017-09-18T10:21:10.550Z,64.62
2017-09-18T10:23:38.031Z,64.06
2017-09-18T10:26:05.547Z,65.62
2017-09-18T10:28:33.018Z,62.94
2017-09-18T10:31:00.476Z,64.32
2017-09-18T10:33:27.942Z,63.42
2017-09-18T10:35:55.974Z,63.35
2017-09-18T10:38:23.431Z,63.09
2017-09-18T10:40:50.870Z,63.93
2017-09-18T10:43:18.363Z,64.45
2017-09-18T10:45:45.834Z,64.95
2017-09-18T10:48:13.328Z,64.65
2017-09-18T10:50:40.873Z,65.15
2017-09-18T10:53:08.342Z,65.04
2017-09-18T10:55:35.783Z,64.18
2017-09-18T10:58:03.256Z,64.49
2017-09-18T11:00:30.912Z,63.78
2017-09-18T11:02:58.368Z,62.71
2017-09-18T11:05:25.830Z,61.56
2017-09-18T11:07:53.272Z,61.31
2017-09-18T11:10:20.728Z,63.29
2017-09-18T11:12:48.353Z,62.29
2017-09-18T11:15:15.809Z,65.00
2017-09-18T11:17:43.264Z,64.28
2017-09-18T11:20:10.735Z,64.27
2017-09-18T11:22:38.179Z,64.22
2017-09-18T11:25:05.642Z,64.31
2017-09-18T11:27:33.091Z,63.93
2017-09-18T11:30:00.560Z,64.36
2017-09-18T11:32:28.054Z,63.28
2017-09-18T11:34:55.524Z,61.96
2017-09-18T11:37:22.964Z,62.24
2017-09-18T11:39:50.442Z,61.58
2017-09-18T11:42:17.886Z,61.88
2017-09-18T11:44:45.355Z,60.04
2017-09-18T11:47:12.803Z,60.30
2017-09-18T11:49:40.287Z,60.93
2017-09-18T11:52:07.725Z,61.45
2017-09-18T11:54:35.241Z,60.95
2017-09-18T11:57:02.707Z,59.82
2017-09-18T11:59:30.412Z,59.49
2017-09-18T12:01:57.870Z,60.16
2017-09-18T12:04:25.371Z,60.29
2017-09-18T12:06:52.842Z,59.37
2017-09-18T12:09:20.309Z,57.40
2017-09-18T12:11:47.745Z,57.34
2017-09-18T12:14:15.206Z,55.13
2017-09-18T12:16:42.652Z,56.57
2017-09-18T12:19:10.100Z,57.09
2017-09-18T12:21:37.562Z,54.17
2017-09-18T12:24:05.002Z,54.75
2017-09-18T12:26:32.457Z,55.95
2017-09-18T12:28:59.894Z,55.06
2017-09-18T12:31:27.353Z,57.12
2017-09-18T12:33:54.871Z,58.32
2017-09-18T12:36:22.345Z,57.21
2017-09-18T12:38:49.783Z,56.97
2017-09-18T12:41:17.255Z,57.34
2017-09-18T12:43:44.795Z,56.43
2017-09-18T12:46:12.721Z,56.89
2017-09-18T12:48:40.187Z,57.47
2017-09-18T12:51:07.659Z,55.19
2017-09-18T12:53:35.094Z,55.01
2017-09-18T12:56:02.557Z,55.19
2017-09-18T12:58:30.176Z,54.14
2017-09-18T13:00:57.637Z,55.19
2017-09-18T13:03:25.113Z,52.11
2017-09-18T13:05:52.629Z,52.95
2017-09-18T13:08:20.171Z,53.40
2017-09-18T13:10:47.746Z,54.20
2017-09-18T13:13:15.316Z,54.12
2017-09-18T13:15:42.792Z,53.31
2017-09-18T13:18:10.329Z,54.05
2017-09-18T13:20:37.895Z,54.44
2017-09-18T13:23:05.347Z,54.92
2017-09-18T13:25:32.890Z,55.64
2017-09-18T13:28:00.346Z,55.84
2017-09-18T13:30:27.808Z,55.61
2017-09-18T13:32:55.251Z,55.94
2017-09-18T13:35:22.709Z,56.20
2017-09-18T13:37:50.142Z,54.90
2017-09-18T13:40:17.602Z,55.65
2017-09-18T13:42:45.100Z,55.89
2017-09-18T13:45:12.551Z,55.22
2017-09-18T13:47:40.057Z,55.62
2017-09-18T13:50:07.511Z,55.68
2017-09-18T13:52:34.983Z,56.43
2017-09-18T13:55:02.441Z,56.58
2017-09-18T13:57:30.094Z,57.08
2017-09-18T13:59:57.555Z,57.26
2017-09-18T14:02:25.015Z,57.16
2017-09-18T14:04:53.302Z,57.74
2017-09-18T14:07:20.754Z,58.46
2017-09-18T14:09:48.202Z,58.26
2017-09-18T14:12:15.714Z,57.82
2017-09-18T14:14:43.167Z,57.55
2017-09-18T14:17:10.639Z,58.93
2017-09-18T14:19:38.073Z,58.85
2017-09-18T14:22:05.544Z,57.57
2017-09-18T14:24:33.070Z,58.15
2017-09-18T14:27:00.531Z,57.33
2017-09-18T14:29:27.982Z,55.99
2017-09-18T14:31:55.452Z,55.76
2017-09-18T14:34:22.923Z,55.92
2017-09-18T14:36:50.395Z,56.92
2017-09-18T14:39:17.856Z,57.30
2017-09-18T14:41:45.362Z,57.97
2017-09-18T14:44:13.353Z,58.00
2017-09-18T14:46:40.820Z,57.33
2017-09-18T14:49:08.364Z,58.11
2017-09-18T14:51:35.831Z,58.54
2017-09-18T14:54:03.283Z,56.19
2017-09-18T14:56:30.832Z,56.32
2017-09-18T14:58:58.288Z,56.17
2017-09-18T15:01:25.849Z,55.03
2017-09-18T15:03:53.291Z,52.31
2017-09-18T15:06:20.730Z,52.83
2017-09-18T15:08:48.216Z,53.78
2017-09-18T15:11:15.654Z,53.96
2017-09-18T15:13:43.115Z,55.09
2017-09-18T15:16:10.586Z,54.23
2017-09-18T15:18:38.029Z,54.27
2017-09-18T15:21:05.498Z,54.98
2017-09-18T15:23:33.046Z,54.68
2017-09-18T15:26:00.487Z,54.63
2017-09-18T15:28:27.959Z,55.20
2017-09-18T15:30:56.053Z,55.50
2017-09-18T15:33:23.595Z,54.36
2017-09-18T15:35:51.025Z,54.66
2017-09-18T15:38:18.501Z,56.67
2017-09-18T15:40:45.992Z,54.54
2017-09-18T15:43:13.602Z,56.33
2017-09-18T15:45:41.057Z,57.37
2017-09-18T15:48:08.518Z,57.51
2017-09-18T15:50:35.989Z,58.47
2017-09-18T15:53:03.466Z,58.37
2017-09-18T15:55:30.915Z,58.87
2017-09-18T15:57:58.458Z,58.71
2017-09-18T16:00:25.913Z,58.48
2017-09-18T16:02:53.385Z,58.65
2017-09-18T16:05:20.898Z,59.51
2017-09-18T16:07:48.359Z,58.95
2017-09-18T16:10:15.805Z,58.62
2017-09-18T16:12:43.280Z,60.26
2017-09-18T16:15:10.738Z,60.76
2017-09-18T16:17:38.187Z,60.28
2017-09-18T16:20:05.684Z,59.61
2017-09-18T16:22:33.130Z,59.51
2017-09-18T16:25:00.597Z,59.90
2017-09-18T16:27:28.043Z,59.76
2017-09-18T16:29:55.914Z,56.32
2017-09-18T16:32:23.477Z,56.59
2017-09-18T16:34:51.036Z,56.70
2017-09-18T16:37:18.478Z,57.76
2017-09-18T16:39:46.047Z,57.64
2017-09-18T16:42:13.495Z,58.37
2017-09-18T16:44:40.959Z,58.55
2017-09-18T16:47:08.393Z,59.20
2017-09-18T16:49:35.867Z,60.22
2017-09-18T16:52:03.311Z,58.97
2017-09-18T16:54:30.770Z,59.01
2017-09-18T16:56:58.246Z,58.84
2017-09-18T16:59:25.713Z,60.28
2017-09-18T17:01:53.250Z,60.25
2017-09-18T17:04:20.735Z,60.58
2017-09-18T17:06:48.177Z,60.85
2017-09-18T17:09:15.638Z,61.24
2017-09-18T17:11:43.088Z,61.76
2017-09-18T17:14:10.574Z,62.19
2017-09-18T17:16:38.070Z,62.50
2017-09-18T17:19:05.555Z,62.73
2017-09-18T17:21:32.998Z,63.41
2017-09-18T17:24:00.468Z,63.66
2017-09-18T17:26:27.918Z,62.91
2017-09-18T17:28:55.421Z,62.76
2017-09-18T17:31:22.869Z,62.87
2017-09-18T17:33:50.396Z,62.96
2017-09-18T17:36:17.864Z,63.28
2017-09-18T17:38:45.399Z,63.78
2017-09-18T17:41:12.832Z,64.19
2017-09-18T17:43:40.333Z,65.30
2017-09-18T17:46:07.789Z,65.18
2017-09-18T17:48:35.230Z,65.64
2017-09-18T17:51:02.756Z,67.69
2017-09-18T17:53:30.206Z,67.86
2017-09-18T17:55:57.713Z,68.53
2017-09-18T17:58:25.170Z,68.99
2017-09-18T18:00:52.666Z,70.40
2017-09-18T18:03:20.255Z,70.56
2017-09-18T18:05:47.729Z,70.79
2017-09-18T18:08:15.207Z,71.14
2017-09-18T18:10:42.679Z,71.38
2017-09-18T18:13:10.172Z,71.94
2017-09-18T18:15:37.757Z,71.67
2017-09-18T18:18:05.201Z,71.30
2017-09-18T18:20:32.667Z,72.49
2017-09-18T18:23:00.119Z,72.47
2017-09-18T18:25:27.689Z,72.84
2017-09-18T18:27:55.159Z,73.37
2017-09-18T18:30:22.594Z,73.62
2017-09-18T18:32:50.175Z,73.74
2017-09-18T18:35:17.625Z,74.01
2017-09-18T18:37:45.100Z,73.55
2017-09-18T18:40:12.544Z,73.72
2017-09-18T18:42:40.002Z,75.30
2017-09-18T18:45:07.460Z,75.08
2017-09-18T18:47:34.933Z,75.43
2017-09-18T18:50:02.468Z,76.35
2017-09-18T18:52:29.927Z,77.05
2017-09-18T18:54:57.370Z,77.33
2017-09-18T18:57:26.426Z,77.67
2017-09-18T18:59:53.948Z,77.90
2017-09-18T19:02:21.865Z,78.49
2017-09-18T19:04:49.343Z,78.32
2017-09-18T19:07:17.807Z,78.57
2017-09-18T19:09:45.298Z,78.81
2017-09-18T19:12:12.768Z,79.49
2017-09-18T19:14:40.361Z,79.62
2017-09-18T19:17:07.878Z,78.43
2017-09-18T19:19:35.318Z,79.14
2017-09-18T19:22:02.753Z,79.08
2017-09-18T19:24:30.210Z,79.02
2017-09-18T19:26:57.707Z,79.26
2017-09-18T19:29:25.169Z,79.02
2017-09-18T19:31:52.607Z,77.94
2017-09-18T19:34:20.070Z,78.01
2017-09-18T19:36:47.516Z,77.29
2017-09-18T19:39:14.973Z,76.18
2017-09-18T19:41:42.491Z,76.13
2017-09-18T19:44:09.953Z,75.78
2017-09-18T19:46:37.404Z,75.94
2017-09-18T19:49:04.876Z,75.15
2017-09-18T19:51:32.310Z,75.16
2017-09-18T19:54:00.074Z,74.90
2017-09-18T19:56:28.573Z,74.50
2017-09-18T19:58:56.063Z,74.79
2017-09-18T20:01:24.154Z,75.38
2017-09-18T20:03:51.695Z,75.78
2017-09-18T20:06:19.163Z,75.68
2017-09-18T20:08:46.604Z,75.40
2017-09-18T20:11:14.071Z,76.30
2017-09-18T20:13:41.510Z,75.55
2017-09-18T20:16:08.980Z,76.19
2017-09-18T20:18:36.429Z,75.72
2017-09-18T20:21:03.886Z,75.43
2017-09-18T20:23:31.331Z,75.29
2017-09-18T20:25:58.828Z,75.11
2017-09-18T20:28:26.345Z,75.07
2017-09-18T20:30:53.806Z,75.82
2017-09-18T20:33:21.323Z,76.35
2017-09-18T20:35:48.826Z,76.56
2017-09-18T20:38:16.265Z,77.24
2017-09-18T20:40:43.711Z,77.93
2017-09-18T20:43:11.205Z,77.69
2017-09-18T20:45:38.649Z,78.07
2017-09-18T20:48:06.270Z,77.98
2017-09-18T20:50:33.769Z,77.75
2017-09-18T20:53:01.251Z,78.90
2017-09-18T20:55:28.687Z,79.16
2017-09-18T20:57:56.156Z,79.79
2017-09-18T21:00:24.017Z,81.45
2017-09-18T21:02:51.568Z,81.77
2017-09-18T21:05:19.007Z,82.57
2017-09-18T21:07:46.591Z,82.21
2017-09-18T21:10:14.054Z,82.74
2017-09-18T21:12:41.527Z,83.25
2017-09-18T21:15:08.980Z,83.09
2017-09-18T21:17:36.449Z,82.88
2017-09-18T21:20:03.975Z,82.98
2017-09-18T21:22:31.451Z,83.00
2017-09-18T21:24:58.919Z,82.68
2017-09-18T21:27:26.394Z,83.54
2017-09-18T21:29:53.883Z,83.35
2017-09-18T21:32:21.360Z,83.67
2017-09-18T21:34:48.794Z,83.37
2017-09-18T21:37:16.233Z,83.78
2017-09-18T21:39:43.689Z,83.37
2017-09-18T21:42:11.133Z,83.37
2017-09-18T21:44:38.599Z,83.60
2017-09-18T21:47:06.211Z,83.92
2017-09-18T21:49:33.810Z,83.78
2017-09-18T21:52:01.265Z,83.55
2017-09-18T21:54:28.721Z,83.72
2017-09-18T21:56:56.164Z,83.97
2017-09-18T21:59:23.680Z,83.86
2017-09-18T22:01:51.123Z,84.32
2017-09-18T22:04:18.719Z,83.65
2017-09-18T22:06:46.158Z,83.52
2017-09-18T22:09:13.596Z,83.57
2017-09-18T22:11:41.070Z,83.19
2017-09-18T22:14:08.543Z,83.60
2017-09-18T22:16:36.016Z,83.45
2017-09-18T22:19:03.475Z,83.47
2017-09-18T22:21:30.962Z,83.48
2017-09-18T22:23:58.449Z,84.12
2017-09-18T22:26:26.013Z,84.20
2017-09-18T22:28:53.442Z,84.90
2017-09-18T22:31:20.926Z,84.15
2017-09-18T22:33:48.753Z,84.87
2017-09-18T22:36:16.222Z,85.73
2017-09-18T22:38:43.654Z,84.69
2017-09-18T22:41:11.151Z,85.05
2017-09-18T22:43:38.629Z,85.26
2017-09-18T22:46:06.177Z,84.91
2017-09-18T22:48:33.643Z,85.02
2017-09-18T22:51:01.092Z,85.07
2017-09-18T22:53:28.563Z,84.79
2017-09-18T22:55:56.018Z,84.40
2017-09-18T22:58:23.540Z,84.72
2017-09-18T23:00:50.983Z,85.00
2017-09-18T23:03:18.448Z,85.26
2017-09-18T23:05:45.915Z,84.95
2017-09-18T23:08:13.388Z,85.18
2017-09-18T23:10:40.819Z,84.85
2017-09-18T23:13:08.315Z,84.92
2017-09-18T23:15:35.750Z,85.12
2017-09-18T23:18:03.223Z,85.15
2017-09-18T23:20:30.690Z,84.64
2017-09-18T23:22:58.158Z,84.66
2017-09-18T23:25:25.701Z,85.18
2017-09-18T23:27:53.182Z,85.14
2017-09-18T23:30:20.610Z,84.99
2017-09-18T23:32:48.389Z,84.81
2017-09-18T23:35:15.884Z,84.97
2017-09-18T23:37:43.322Z,85.72
2017-09-18T23:40:10.834Z,86.34
2017-09-18T23:42:38.283Z,86.02
2017-09-18T23:45:05.756Z,85.17
2017-09-18T23:47:33.212Z,85.20
2017-09-18T23:50:00.679Z,85.49
2017-09-18T23:52:28.210Z,85.44
2017-09-18T23:54:55.693Z,85.28
2017-09-18T23:57:23.234Z,85.39
2017-09-18T23:59:50.665Z,86.11
